createdAt,value
2022-09-17T00:00:08.342Z,77.78
2022-09-17T00:01:40.631Z,77.26
2022-09-17T00:03:12.696Z,77.12
2022-09-17T00:04:44.769Z,77.15
2022-09-17T00:06:17.072Z,77.07
2022-09-17T00:07:50.518Z,77.17
2022-09-17T00:09:22.490Z,77.25
2022-09-17T00:10:54.537Z,77.35
2022-09-17T00:12:26.520Z,77.26
2022-09-17T00:14:00.637Z,77.22
2022-09-17T00:15:33.070Z,77.14
2022-09-17T00:17:05.137Z,77.32
2022-09-17T00:18:40.968Z,77.47
2022-09-17T00:20:13.028Z,77.64
2022-09-17T00:21:45.303Z,77.80
2022-09-17T00:23:17.259Z,77.83
2022-09-17T00:24:49.228Z,77.96
2022-09-17T00:26:21.380Z,78.02
2022-09-17T00:27:53.427Z,78.25
2022-09-17T00:29:25.412Z,78.23
2022-09-17T00:30:57.608Z,77.92
2022-09-17T00:32:30.020Z,77.70
2022-09-17T00:34:02.869Z,77.47
2022-09-17T00:35:34.973Z,78.04
2022-09-17T00:37:06.945Z,77.73
2022-09-17T00:38:39.216Z,77.87
2022-09-17T00:40:11.281Z,77.83
2022-09-17T00:41:44.194Z,77.72
2022-09-17T00:43:33.614Z,77.87
2022-09-17T00:45:06.184Z,77.71
2022-09-17T00:46:44.011Z,77.59
2022-09-17T00:48:16.030Z,77.70
2022-09-17T00:49:49.938Z,77.40
2022-09-17T00:51:28.945Z,77.66
2022-09-17T00:53:11.676Z,77.87
2022-09-17T00:54:48.812Z,78.02
2022-09-17T00:56:29.542Z,78.16
2022-09-17T00:58:03.543Z,78.33
2022-09-17T00:59:35.717Z,77.97
2022-09-17T01:01:08.077Z,77.91
2022-09-17T01:02:40.746Z,78.08
2022-09-17T01:04:20.536Z,78.12
2022-09-17T01:06:12.680Z,77.64
2022-09-17T01:07:50.681Z,77.99
2022-09-17T01:09:41.184Z,78.19
2022-09-17T01:11:21.841Z,78.02
2022-09-17T01:13:07.785Z,77.51
2022-09-17T01:15:17.297Z,77.63
2022-09-17T01:17:13.916Z,77.85
2022-09-17T01:18:51.388Z,78.37
2022-09-17T01:20:30.872Z,78.15
2022-09-17T01:22:08.098Z,77.94
2022-09-17T01:24:11.899Z,77.55
2022-09-17T01:26:10.895Z,77.73
2022-09-17T01:27:45.968Z,78.14
2022-09-17T01:29:55.637Z,77.67
2022-09-17T01:31:34.191Z,77.74
2022-09-17T01:33:06.385Z,77.96
2022-09-17T01:35:03.757Z,78.22
2022-09-17T01:36:47.849Z,78.77
2022-09-17T01:38:38.114Z,78.60
2022-09-17T01:40:14.380Z,78.25
2022-09-17T01:42:00.609Z,78.44
2022-09-17T01:43:42.099Z,78.05
2022-09-17T01:45:22.979Z,78.39
2022-09-17T01:47:04.418Z,78.56
2022-09-17T01:48:40.492Z,79.07
2022-09-17T01:50:21.408Z,78.96
2022-09-17T01:51:55.130Z,79.14
2022-09-17T01:53:52.085Z,79.13
2022-09-17T01:55:27.261Z,79.51
2022-09-17T01:57:05.781Z,79.36
2022-09-17T01:58:43.292Z,79.16
2022-09-17T02:00:17.673Z,79.02
2022-09-17T02:01:53.779Z,79.15
2022-09-17T02:03:30.905Z,79.58
2022-09-17T02:05:09.535Z,79.43
2022-09-17T02:06:45.786Z,79.42
2022-09-17T02:08:21.995Z,79.64
2022-09-17T02:10:07.226Z,79.86
2022-09-17T02:11:40.537Z,79.64
2022-09-17T02:13:20.591Z,79.84
2022-09-17T02:14:54.612Z,79.87
2022-09-17T02:16:27.665Z,79.85
2022-09-17T02:18:03.910Z,80.10
2022-09-17T02:19:38.827Z,79.75
2022-09-17T02:21:15.966Z,79.79
2022-09-17T02:22:57.690Z,79.49
2022-09-17T02:25:06.714Z,79.85
2022-09-17T02:26:43.666Z,80.39
2022-09-17T02:28:26.014Z,79.92
2022-09-17T02:29:58.137Z,80.22
2022-09-17T02:31:30.106Z,79.98
2022-09-17T02:33:03.862Z,79.98
2022-09-17T02:34:36.263Z,80.20
2022-09-17T02:36:08.638Z,79.91
2022-09-17T02:37:42.305Z,79.71
2022-09-17T02:39:14.325Z,79.77
2022-09-17T02:40:49.920Z,79.96
2022-09-17T02:42:24.817Z,79.62
2022-09-17T02:44:11.812Z,79.73
2022-09-17T02:46:07.823Z,79.37
2022-09-17T02:48:05.826Z,78.93
2022-09-17T02:50:05.199Z,79.03
2022-09-17T02:52:00.330Z,79.18
2022-09-17T02:54:01.511Z,79.12
2022-09-17T02:55:42.211Z,79.26
2022-09-17T02:57:38.732Z,79.40
2022-09-17T02:59:25.282Z,79.35
2022-09-17T03:01:04.166Z,79.57
2022-09-17T03:02:45.922Z,79.41
2022-09-17T03:04:19.262Z,79.24
2022-09-17T03:05:51.614Z,79.12
2022-09-17T03:07:24.182Z,79.54
2022-09-17T03:08:57.561Z,79.63
2022-09-17T03:10:33.729Z,79.68
2022-09-17T03:12:06.063Z,79.74
2022-09-17T03:13:38.061Z,79.77
2022-09-17T03:15:10.885Z,79.70
2022-09-17T03:16:42.982Z,79.91
2022-09-17T03:18:15.194Z,79.99
2022-09-17T03:19:47.257Z,79.84
2022-09-17T03:23:02.221Z,79.92
2022-09-17T03:24:34.192Z,79.80
2022-09-17T03:26:06.389Z,80.23
2022-09-17T03:27:38.431Z,79.91
2022-09-17T03:29:10.404Z,80.12
2022-09-17T03:30:47.020Z,80.05
2022-09-17T03:32:19.033Z,80.00
2022-09-17T03:33:51.130Z,79.80
2022-09-17T03:35:23.108Z,79.85
2022-09-17T03:36:55.334Z,79.78
2022-09-17T03:38:27.313Z,80.05
2022-09-17T03:39:59.386Z,80.16
2022-09-17T03:41:31.556Z,79.96
2022-09-17T03:43:03.532Z,80.11
2022-09-17T03:44:35.547Z,80.13
2022-09-17T03:46:08.015Z,79.79
2022-09-17T03:47:40.049Z,79.92
2022-09-17T03:49:12.017Z,79.89
2022-09-17T03:50:44.081Z,79.95
2022-09-17T03:52:16.102Z,79.55
2022-09-17T03:53:48.207Z,79.79
2022-09-17T03:55:20.411Z,79.88
2022-09-17T03:56:52.493Z,79.86
2022-09-17T03:58:24.559Z,79.83
2022-09-17T03:59:56.646Z,79.77
2022-09-17T04:01:29.642Z,79.55
2022-09-17T04:03:02.090Z,79.73
2022-09-17T04:04:34.400Z,79.83
2022-09-17T04:06:06.732Z,80.02
2022-09-17T04:07:41.349Z,80.08
2022-09-17T04:09:13.381Z,80.29
2022-09-17T04:10:46.521Z,79.98
2022-09-17T04:12:18.615Z,80.22
2022-09-17T04:13:50.639Z,80.17
2022-09-17T04:15:22.664Z,80.28
2022-09-17T04:16:54.697Z,80.32
2022-09-17T04:18:26.772Z,80.31
2022-09-17T04:19:59.039Z,80.20
2022-09-17T04:21:31.272Z,80.28
2022-09-17T04:23:03.415Z,80.27
2022-09-17T04:24:35.486Z,80.30
2022-09-17T04:26:07.483Z,80.23
2022-09-17T04:27:42.231Z,80.70
2022-09-17T04:29:14.298Z,80.86
2022-09-17T04:30:46.335Z,80.83
2022-09-17T04:32:18.413Z,80.67
2022-09-17T04:33:50.488Z,80.96
2022-09-17T04:35:22.617Z,81.03
2022-09-17T04:38:27.391Z,81.00
2022-09-17T04:39:59.453Z,80.93
2022-09-17T04:41:31.514Z,80.98
2022-09-17T04:43:04.446Z,81.01
2022-09-17T04:44:36.447Z,81.23
2022-09-17T04:46:08.483Z,81.21
2022-09-17T04:47:40.890Z,81.06
2022-09-17T04:49:13.413Z,80.82
2022-09-17T04:50:45.403Z,80.96
2022-09-17T04:52:17.823Z,80.96
2022-09-17T04:53:50.071Z,80.93
2022-09-17T04:55:22.406Z,81.24
2022-09-17T04:56:54.691Z,81.31
2022-09-17T04:58:26.776Z,81.21
2022-09-17T05:00:02.310Z,81.30
2022-09-17T05:01:34.652Z,81.21
2022-09-17T05:03:06.665Z,81.40
2022-09-17T05:04:38.930Z,81.35
2022-09-17T05:06:11.469Z,81.61
2022-09-17T05:07:43.965Z,81.84
2022-09-17T05:09:16.509Z,81.40
2022-09-17T05:12:21.775Z,81.86
2022-09-17T05:13:54.078Z,81.97
2022-09-17T05:15:28.144Z,81.82
2022-09-17T05:17:00.385Z,81.71
2022-09-17T05:18:32.612Z,81.74
2022-09-17T05:20:05.335Z,81.72
2022-09-17T05:21:37.689Z,81.82
2022-09-17T05:23:10.101Z,81.79
2022-09-17T05:24:42.369Z,81.80
2022-09-17T05:26:15.130Z,81.60
2022-09-17T05:27:47.369Z,81.65
2022-09-17T05:29:19.933Z,81.46
2022-09-17T05:30:52.208Z,81.50
2022-09-17T05:32:24.771Z,81.70
2022-09-17T05:33:58.729Z,81.74
2022-09-17T05:35:31.697Z,82.12
2022-09-17T05:37:03.930Z,82.26
2022-09-17T05:38:38.736Z,82.26
2022-09-17T05:40:11.073Z,82.36
2022-09-17T05:41:43.624Z,82.58
2022-09-17T05:43:16.334Z,82.62
2022-09-17T05:44:48.502Z,82.12
2022-09-17T05:46:22.394Z,80.02
2022-09-17T05:47:58.946Z,77.72
2022-09-17T05:49:31.249Z,76.02
2022-09-17T05:51:03.747Z,72.57
2022-09-17T05:52:36.194Z,71.46
2022-09-17T05:54:09.297Z,69.82
2022-09-17T05:55:41.523Z,68.78
2022-09-17T05:57:13.852Z,67.35
2022-09-17T05:58:48.500Z,65.78
2022-09-17T06:00:21.013Z,64.86
2022-09-17T06:01:53.357Z,63.45
2022-09-17T06:03:25.866Z,63.70
2022-09-17T06:05:01.484Z,63.09
2022-09-17T06:06:33.690Z,62.06
2022-09-17T06:08:06.341Z,61.72
2022-09-17T06:09:39.306Z,62.22
2022-09-17T06:11:11.557Z,61.45
2022-09-17T06:12:43.691Z,61.83
2022-09-17T06:14:16.895Z,61.69
2022-09-17T06:15:52.755Z,60.58
2022-09-17T06:17:25.149Z,60.11
2022-09-17T06:18:57.591Z,59.88
2022-09-17T06:20:29.892Z,60.30
2022-09-17T06:22:02.397Z,60.44
2022-09-17T06:23:38.092Z,60.29
2022-09-17T06:25:10.408Z,60.39
2022-09-17T06:26:42.890Z,59.99
2022-09-17T06:28:15.327Z,60.17
2022-09-17T06:29:47.805Z,59.50
2022-09-17T06:31:20.171Z,59.35
2022-09-17T06:32:52.487Z,59.02
2022-09-17T06:34:24.803Z,58.89
2022-09-17T06:36:00.576Z,59.35
2022-09-17T06:37:33.876Z,59.71
2022-09-17T06:39:06.011Z,59.65
2022-09-17T06:40:38.353Z,59.75
2022-09-17T06:42:10.669Z,60.28
2022-09-17T06:43:43.421Z,61.02
2022-09-17T06:45:16.929Z,60.92
2022-09-17T06:46:51.553Z,61.18
2022-09-17T06:48:24.326Z,60.36
2022-09-17T06:51:29.556Z,59.53
2022-09-17T06:53:02.132Z,59.11
2022-09-17T06:54:34.431Z,59.21
2022-09-17T06:56:08.813Z,58.79
2022-09-17T06:57:41.400Z,57.68
2022-09-17T06:59:14.255Z,56.31
2022-09-17T07:00:46.677Z,56.89
2022-09-17T07:02:19.185Z,56.56
2022-09-17T07:03:51.806Z,55.48
2022-09-17T07:05:25.187Z,55.17
2022-09-17T07:06:57.737Z,55.67
2022-09-17T07:08:32.255Z,55.57
2022-09-17T07:10:04.812Z,56.00
2022-09-17T07:11:36.855Z,55.63
2022-09-17T07:13:09.155Z,56.13
2022-09-17T07:14:41.463Z,56.05
2022-09-17T07:16:13.995Z,55.56
2022-09-17T07:17:47.350Z,56.03
2022-09-17T07:19:19.589Z,56.52
2022-09-17T07:20:56.049Z,56.83
2022-09-17T07:22:28.520Z,56.16
2022-09-17T07:24:00.847Z,57.27
2022-09-17T07:25:33.173Z,56.86
2022-09-17T07:27:05.685Z,57.25
2022-09-17T07:28:41.036Z,57.80
2022-09-17T07:30:14.043Z,57.49
2022-09-17T07:31:46.435Z,58.15
2022-09-17T07:33:25.076Z,58.75
2022-09-17T07:34:57.631Z,58.96
2022-09-17T07:36:30.220Z,59.13
2022-09-17T07:38:02.729Z,59.67
2022-09-17T07:39:38.286Z,60.31
2022-09-17T07:41:16.018Z,60.22
2022-09-17T07:42:48.315Z,59.57
2022-09-17T07:44:22.506Z,59.50
2022-09-17T07:45:55.466Z,59.46
2022-09-17T07:47:27.906Z,58.76
2022-09-17T07:49:00.543Z,58.22
2022-09-17T07:50:33.957Z,57.81
2022-09-17T07:52:06.854Z,57.85
2022-09-17T07:53:39.115Z,58.00
2022-09-17T07:55:11.451Z,57.85
2022-09-17T07:56:43.977Z,57.58
2022-09-17T07:58:16.194Z,57.63
2022-09-17T07:59:48.426Z,57.55
2022-09-17T08:01:23.818Z,57.36
2022-09-17T08:02:56.738Z,55.50
2022-09-17T08:04:29.178Z,55.63
2022-09-17T08:06:05.808Z,55.71
2022-09-17T08:07:38.074Z,55.87
2022-09-17T08:09:12.178Z,56.09
2022-09-17T08:10:44.635Z,56.01
2022-09-17T08:12:18.727Z,56.00
2022-09-17T08:13:52.218Z,55.12
2022-09-17T08:15:25.575Z,54.60
2022-09-17T08:16:58.210Z,54.65
2022-09-17T08:18:30.619Z,54.11
2022-09-17T08:20:03.492Z,54.16
2022-09-17T08:21:36.324Z,54.51
2022-09-17T08:23:08.728Z,54.48
2022-09-17T08:24:42.967Z,54.46
2022-09-17T08:26:17.895Z,54.52
2022-09-17T08:27:54.524Z,53.94
2022-09-17T08:29:26.833Z,54.52
2022-09-17T08:31:08.693Z,55.34
2022-09-17T08:32:41.079Z,55.39
2022-09-17T08:34:13.668Z,55.41
2022-09-17T08:35:55.909Z,55.80
2022-09-17T08:37:31.232Z,55.99
2022-09-17T08:39:04.159Z,55.24
2022-09-17T08:40:44.571Z,55.40
2022-09-17T08:42:25.334Z,55.28
2022-09-17T08:44:24.855Z,55.33
2022-09-17T08:45:58.443Z,55.27
2022-09-17T08:47:43.533Z,55.45
2022-09-17T08:50:06.545Z,55.77
2022-09-17T08:51:57.205Z,56.74
2022-09-17T08:55:19.259Z,56.27
2022-09-17T08:57:05.433Z,58.61
2022-09-17T08:59:18.491Z,58.64
2022-09-17T09:01:08.603Z,58.72
2022-09-17T09:02:56.608Z,60.78
2022-09-17T09:05:07.329Z,61.68
2022-09-17T09:07:05.809Z,60.47
2022-09-17T09:08:39.891Z,60.91
2022-09-17T09:10:25.361Z,60.05
2022-09-17T09:12:26.244Z,60.68
2022-09-17T09:14:05.970Z,60.16
2022-09-17T09:15:45.865Z,60.23
2022-09-17T09:17:19.394Z,60.97
2022-09-17T09:18:55.030Z,60.57
2022-09-17T09:20:37.601Z,60.56
2022-09-17T09:22:12.623Z,61.47
2022-09-17T09:23:59.484Z,61.17
2022-09-17T09:25:40.171Z,61.42
2022-09-17T09:27:16.946Z,61.73
2022-09-17T09:29:30.227Z,62.29
2022-09-17T09:31:40.685Z,62.60
2022-09-17T09:33:18.941Z,62.63
2022-09-17T09:34:51.508Z,62.46
2022-09-17T09:36:23.814Z,62.68
2022-09-17T09:38:07.108Z,62.12
2022-09-17T09:39:45.180Z,62.20
2022-09-17T09:41:46.882Z,62.34
2022-09-17T09:44:02.236Z,63.02
2022-09-17T09:45:38.771Z,62.75
2022-09-17T09:47:39.633Z,63.22
2022-09-17T09:49:55.849Z,64.45
2022-09-17T09:51:38.894Z,63.79
2022-09-17T09:53:23.568Z,64.38
2022-09-17T09:55:14.778Z,64.40
2022-09-17T09:56:52.963Z,64.79
2022-09-17T09:58:41.701Z,65.25
2022-09-17T10:00:35.685Z,65.21
2022-09-17T10:02:08.869Z,65.08
2022-09-17T10:03:42.567Z,65.46
2022-09-17T10:05:14.988Z,66.23
2022-09-17T10:06:50.907Z,66.48
2022-09-17T10:08:23.329Z,67.65
2022-09-17T10:10:09.656Z,68.25
2022-09-17T10:11:42.871Z,68.53
2022-09-17T10:13:15.586Z,68.30
2022-09-17T10:14:48.281Z,68.32
2022-09-17T10:16:25.808Z,68.69
2022-09-17T10:18:17.608Z,69.81
2022-09-17T10:20:09.538Z,70.36
2022-09-17T10:21:43.513Z,71.38
2022-09-17T10:23:15.801Z,71.74
2022-09-17T10:24:48.401Z,72.70
2022-09-17T10:26:23.679Z,72.84
2022-09-17T10:27:57.943Z,73.28
2022-09-17T10:29:30.487Z,73.27
2022-09-17T10:31:10.725Z,73.61
2022-09-17T10:32:46.499Z,74.66
2022-09-17T10:34:23.556Z,75.08
2022-09-17T10:36:00.353Z,75.50
2022-09-17T10:37:48.769Z,75.71
2022-09-17T10:39:35.433Z,76.05
2022-09-17T10:41:19.642Z,77.10
2022-09-17T10:43:11.784Z,77.86
2022-09-17T10:44:57.983Z,78.49
2022-09-17T10:46:31.916Z,78.62
2022-09-17T10:48:04.365Z,78.55
2022-09-17T10:50:08.723Z,78.81
2022-09-17T10:55:15.202Z,80.48
2022-09-17T10:56:55.220Z,80.84
2022-09-17T10:58:42.447Z,81.09
2022-09-17T11:00:19.774Z,81.13
2022-09-17T11:02:01.621Z,80.91
2022-09-17T11:03:55.417Z,80.69
2022-09-17T11:05:35.120Z,80.92
2022-09-17T11:07:36.945Z,81.22
2022-09-17T11:09:26.567Z,81.03
2022-09-17T11:11:13.106Z,80.91
2022-09-17T11:13:16.930Z,81.03
2022-09-17T11:14:56.497Z,80.91
2022-09-17T11:16:51.778Z,82.08
2022-09-17T11:18:37.362Z,82.16
2022-09-17T11:20:20.916Z,82.87
2022-09-17T11:22:21.806Z,82.48
2022-09-17T11:24:20.002Z,82.77
2022-09-17T11:26:00.807Z,82.93
2022-09-17T11:28:02.293Z,82.70
2022-09-17T11:29:35.855Z,82.76
2022-09-17T11:31:29.000Z,82.32
2022-09-17T11:33:17.430Z,82.33
2022-09-17T11:35:12.318Z,82.52
2022-09-17T11:36:52.559Z,82.18
2022-09-17T11:38:25.861Z,82.42
2022-09-17T11:39:59.884Z,81.99
2022-09-17T11:41:38.828Z,81.75
2022-09-17T11:43:29.568Z,81.56
2022-09-17T11:45:11.333Z,81.04
2022-09-17T11:46:50.772Z,80.28
2022-09-17T11:48:27.445Z,79.78
2022-09-17T11:50:05.005Z,79.13
2022-09-17T11:51:58.015Z,79.16
2022-09-17T11:54:04.364Z,79.35
2022-09-17T11:55:45.566Z,79.62
2022-09-17T11:57:20.845Z,79.10
2022-09-17T11:59:13.579Z,78.49
2022-09-17T12:00:55.748Z,77.30
2022-09-17T12:02:45.296Z,78.05
2022-09-17T12:04:31.005Z,77.85
2022-09-17T12:06:08.615Z,77.22
2022-09-17T12:07:46.776Z,77.71
2022-09-17T12:09:26.464Z,77.82
2022-09-17T12:11:28.536Z,77.09
2022-09-17T12:13:07.782Z,76.33
2022-09-17T12:14:59.404Z,75.95
2022-09-17T12:16:45.599Z,75.50
2022-09-17T12:18:43.580Z,73.99
2022-09-17T12:20:29.543Z,74.54
2022-09-17T12:22:18.097Z,74.58
2022-09-17T12:24:23.435Z,74.98
2022-09-17T12:26:32.717Z,75.65
2022-09-17T12:28:16.299Z,74.95
2022-09-17T12:30:00.795Z,75.21
2022-09-17T12:32:02.414Z,75.85
2022-09-17T12:34:28.471Z,76.39
2022-09-17T12:36:30.858Z,76.36
2022-09-17T12:38:08.686Z,76.25
2022-09-17T12:39:53.565Z,76.94
2022-09-17T12:41:47.398Z,76.16
2022-09-17T12:43:34.558Z,74.18
2022-09-17T12:45:32.778Z,72.75
2022-09-17T12:47:42.195Z,71.61
2022-09-17T12:49:20.521Z,71.42
2022-09-17T12:51:20.001Z,70.95
2022-09-17T12:53:13.088Z,71.32
2022-09-17T12:55:11.574Z,70.59
2022-09-17T12:57:03.908Z,70.69
2022-09-17T12:58:58.339Z,70.97
2022-09-17T13:00:37.518Z,70.81
2022-09-17T13:02:26.908Z,71.21
2022-09-17T13:04:38.130Z,71.88
2022-09-17T13:06:33.405Z,72.50
2022-09-17T13:08:21.548Z,72.94
2022-09-17T13:10:30.770Z,73.11
2022-09-17T13:12:09.073Z,73.96
2022-09-17T13:14:25.803Z,73.75
2022-09-17T13:16:01.776Z,74.44
2022-09-17T13:18:06.108Z,75.12
2022-09-17T13:19:57.922Z,74.78
2022-09-17T13:21:43.871Z,74.11
2022-09-17T13:23:16.319Z,75.13
2022-09-17T13:25:03.207Z,74.97
2022-09-17T13:26:40.097Z,74.62
2022-09-17T13:28:13.131Z,74.94
2022-09-17T13:29:45.297Z,74.74
2022-09-17T13:31:44.939Z,74.03
2022-09-17T13:33:50.779Z,74.05
2022-09-17T13:35:23.047Z,74.06
2022-09-17T13:36:56.304Z,73.64
2022-09-17T13:38:28.326Z,73.05
2022-09-17T13:40:01.655Z,72.59
2022-09-17T13:41:37.206Z,72.42
2022-09-17T13:43:13.656Z,73.29
2022-09-17T13:45:09.974Z,72.84
2022-09-17T13:46:45.125Z,72.67
2022-09-17T13:48:22.129Z,72.53
2022-09-17T13:49:59.021Z,72.95
2022-09-17T13:51:31.311Z,73.08
2022-09-17T13:53:07.838Z,73.57
2022-09-17T13:54:40.625Z,73.93
2022-09-17T13:56:51.247Z,73.44
2022-09-17T13:58:31.727Z,73.29
2022-09-17T14:00:04.496Z,73.22
2022-09-17T14:02:31.916Z,73.09
2022-09-17T14:04:05.500Z,73.25
2022-09-17T14:05:37.986Z,73.74
2022-09-17T14:07:22.035Z,74.24
2022-09-17T14:08:58.327Z,75.04
2022-09-17T14:10:50.726Z,74.90
2022-09-17T14:12:41.688Z,75.23
2022-09-17T14:14:13.930Z,75.77
2022-09-17T14:15:46.539Z,75.69
2022-09-17T14:17:52.400Z,75.65
2022-09-17T14:19:56.903Z,75.55
2022-09-17T14:52:25.571Z,75.83
2022-09-17T14:54:15.095Z,75.98
2022-09-17T14:55:49.725Z,76.42
2022-09-17T14:57:28.052Z,76.61
2022-09-17T14:59:00.547Z,77.11
2022-09-17T15:00:38.577Z,77.49
2022-09-17T15:02:27.698Z,77.44
2022-09-17T15:04:15.426Z,77.10
2022-09-17T15:05:51.106Z,77.57
2022-09-17T15:07:24.055Z,77.42
2022-09-17T15:08:58.271Z,77.24
2022-09-17T15:10:31.390Z,77.65
2022-09-17T15:12:04.485Z,77.91
2022-09-17T15:13:51.949Z,77.82
2022-09-17T15:15:25.804Z,77.87
2022-09-17T15:17:00.573Z,77.75
2022-09-17T15:18:36.976Z,78.11
2022-09-17T15:20:15.965Z,78.18
2022-09-17T15:21:49.977Z,78.13
2022-09-17T15:23:26.387Z,77.79
2022-09-17T15:25:01.075Z,77.97
2022-09-17T15:26:36.895Z,77.79
2022-09-17T15:28:41.100Z,77.77
2022-09-17T15:30:24.594Z,77.26
2022-09-17T15:31:56.850Z,77.47
2022-09-17T15:33:29.937Z,77.13
2022-09-17T15:35:14.943Z,76.53
2022-09-17T15:37:26.231Z,76.30
2022-09-17T15:38:59.548Z,76.31
2022-09-17T15:40:35.550Z,75.31
2022-09-17T15:42:18.943Z,75.41
2022-09-17T15:43:51.584Z,74.74
2022-09-17T15:45:37.730Z,74.60
2022-09-17T15:47:35.841Z,74.52
2022-09-17T15:49:38.722Z,74.49
2022-09-17T15:51:32.968Z,74.27
2022-09-17T15:53:10.745Z,74.03
2022-09-17T15:54:42.964Z,73.65
2022-09-17T15:56:18.119Z,73.74
2022-09-17T15:57:50.498Z,73.79
2022-09-17T15:59:32.401Z,73.79
2022-09-17T16:01:17.263Z,73.82
2022-09-17T16:02:49.681Z,73.69
2022-09-17T16:04:37.943Z,73.54
2022-09-17T16:06:18.841Z,73.25
2022-09-17T16:07:51.475Z,71.76
2022-09-17T16:09:40.835Z,70.16
2022-09-17T16:11:16.560Z,69.78
2022-09-17T16:12:50.210Z,68.14
2022-09-17T16:14:22.593Z,66.86
2022-09-17T16:15:55.214Z,67.01
2022-09-17T16:17:38.504Z,66.99
2022-09-17T16:19:11.395Z,65.64
2022-09-17T16:20:44.033Z,65.47
2022-09-17T16:22:16.255Z,65.27
2022-09-17T16:23:48.486Z,65.50
2022-09-17T16:25:24.949Z,65.49
2022-09-17T16:26:57.448Z,64.96
2022-09-17T16:28:30.022Z,64.30
2022-09-17T16:30:09.451Z,64.33
2022-09-17T16:31:41.796Z,64.04
2022-09-17T16:33:15.720Z,63.61
2022-09-17T16:34:48.019Z,63.69
2022-09-17T16:36:20.371Z,64.04
2022-09-17T16:37:54.762Z,64.32
2022-09-17T16:39:27.106Z,64.80
2022-09-17T16:40:59.496Z,65.07
2022-09-17T16:42:32.733Z,66.31
2022-09-17T16:44:05.066Z,67.66
2022-09-17T16:45:37.415Z,68.41
2022-09-17T16:47:09.710Z,68.85
2022-09-17T16:48:44.036Z,69.23
2022-09-17T16:50:18.130Z,69.20
2022-09-17T16:51:50.884Z,69.35
2022-09-17T16:53:23.175Z,68.25
2022-09-17T16:54:55.496Z,69.45
2022-09-17T16:56:27.828Z,69.18
2022-09-17T16:58:00.218Z,69.03
2022-09-17T16:59:32.510Z,68.93
2022-09-17T17:01:12.738Z,68.97
2022-09-17T17:02:46.112Z,69.17
2022-09-17T17:04:18.503Z,68.87
2022-09-17T17:05:50.877Z,68.89
2022-09-17T17:07:23.099Z,69.73
2022-09-17T17:09:01.486Z,69.76
2022-09-17T17:10:34.210Z,70.08
2022-09-17T17:12:09.737Z,70.15
2022-09-17T17:13:45.402Z,70.19
2022-09-17T17:15:17.773Z,70.13
2022-09-17T17:16:50.125Z,70.07
2022-09-17T17:18:22.827Z,70.14
2022-09-17T17:19:55.393Z,70.09
2022-09-17T17:21:27.716Z,69.79
2022-09-17T17:22:59.965Z,70.10
2022-09-17T17:24:32.188Z,70.49
2022-09-17T17:26:04.592Z,70.93
2022-09-17T17:27:38.817Z,70.66
2022-09-17T17:29:13.875Z,70.36
2022-09-17T17:30:48.226Z,70.20
2022-09-17T17:32:20.445Z,71.40
2022-09-17T17:33:52.747Z,71.94
2022-09-17T17:35:25.292Z,72.51
2022-09-17T17:36:58.297Z,73.14
2022-09-17T17:38:30.780Z,73.36
2022-09-17T17:40:07.418Z,73.28
2022-09-17T17:41:40.072Z,73.64
2022-09-17T17:43:13.082Z,73.39
2022-09-17T17:44:45.513Z,73.65
2022-09-17T17:46:17.984Z,73.87
2022-09-17T17:47:50.680Z,74.00
2022-09-17T17:49:22.999Z,74.08
2022-09-17T17:50:56.889Z,74.03
2022-09-17T17:52:29.411Z,74.68
2022-09-17T17:54:01.761Z,74.97
2022-09-17T17:55:34.084Z,75.15
2022-09-17T17:57:06.381Z,74.47
2022-09-17T17:58:39.286Z,74.42
2022-09-17T18:00:12.968Z,74.07
2022-09-17T18:01:45.429Z,74.51
2022-09-17T18:03:17.853Z,74.17
2022-09-17T18:04:50.232Z,73.91
2022-09-17T18:06:22.533Z,73.79
2022-09-17T18:07:54.946Z,74.73
2022-09-17T18:09:27.198Z,75.34
2022-09-17T18:11:04.641Z,75.38
2022-09-17T18:12:37.572Z,75.10
2022-09-17T18:14:15.832Z,74.75
2022-09-17T18:15:56.471Z,75.26
2022-09-17T18:17:29.479Z,74.95
2022-09-17T18:19:02.818Z,75.07
2022-09-17T18:20:35.245Z,74.96
2022-09-17T18:22:07.697Z,74.81
2022-09-17T18:23:41.779Z,75.29
2022-09-17T18:25:14.066Z,75.27
2022-09-17T18:26:47.591Z,74.89
2022-09-17T18:28:20.002Z,74.56
2022-09-17T18:29:54.929Z,74.29
2022-09-17T18:31:27.497Z,74.14
2022-09-17T18:32:59.901Z,74.00
2022-09-17T18:34:32.700Z,74.18
2022-09-17T18:36:06.798Z,74.47
2022-09-17T18:37:39.009Z,74.55
2022-09-17T18:41:11.667Z,74.66
2022-09-17T18:42:44.098Z,75.07
2022-09-17T18:44:16.750Z,75.43
2022-09-17T18:45:58.717Z,74.86
2022-09-17T18:47:31.042Z,74.90
2022-09-17T18:50:36.569Z,75.01
2022-09-17T18:52:08.879Z,75.21
2022-09-17T18:53:41.348Z,75.17
2022-09-17T18:55:13.730Z,75.73
2022-09-17T18:56:46.092Z,75.94
2022-09-17T18:58:18.367Z,76.07
2022-09-17T18:59:50.648Z,76.34
2022-09-17T19:01:25.202Z,76.48
2022-09-17T19:02:57.658Z,76.82
2022-09-17T19:04:30.076Z,76.85
2022-09-17T19:06:07.835Z,76.57
2022-09-17T19:07:44.557Z,76.41
2022-09-17T19:09:17.055Z,75.95
2022-09-17T19:10:53.273Z,75.71
2022-09-17T19:12:25.669Z,75.87
2022-09-17T19:13:58.206Z,76.31
2022-09-17T19:15:31.248Z,76.45
2022-09-17T19:17:03.593Z,76.69
2022-09-17T19:20:15.371Z,77.11
2022-09-17T19:21:50.655Z,77.41
2022-09-17T19:23:22.939Z,77.62
2022-09-17T19:24:55.265Z,77.58
2022-09-17T19:26:28.251Z,77.15
2022-09-17T19:28:00.753Z,76.98
2022-09-17T19:29:33.085Z,77.10
2022-09-17T19:31:10.554Z,77.36
2022-09-17T19:32:46.568Z,77.36
2022-09-17T19:34:18.820Z,77.09
2022-09-17T19:35:51.704Z,77.19
2022-09-17T19:37:23.975Z,77.13
2022-09-17T19:38:59.491Z,77.15
2022-09-17T19:40:31.869Z,77.23
2022-09-17T19:42:04.414Z,77.28
2022-09-17T19:43:37.397Z,77.37
2022-09-17T19:45:10.140Z,77.30
2022-09-17T19:46:42.605Z,77.18
2022-09-17T19:48:14.891Z,77.22
2022-09-17T19:49:49.289Z,77.00
2022-09-17T19:51:23.335Z,77.08
2022-09-17T19:54:28.585Z,76.45
2022-09-17T19:56:01.477Z,76.22
2022-09-17T19:57:33.711Z,75.76
2022-09-17T19:59:06.114Z,74.93
2022-09-17T20:00:39.357Z,73.89
2022-09-17T20:02:14.585Z,72.79
2022-09-17T20:03:47.335Z,71.96
2022-09-17T20:05:19.700Z,71.79
2022-09-17T20:06:52.051Z,70.70
2022-09-17T20:08:24.417Z,70.49
2022-09-17T20:09:56.901Z,69.59
2022-09-17T20:11:29.276Z,69.31
2022-09-17T20:13:01.971Z,68.56
2022-09-17T20:14:34.322Z,67.94
2022-09-17T20:16:09.874Z,67.43
2022-09-17T20:17:42.267Z,67.62
2022-09-17T20:19:16.313Z,68.07
2022-09-17T20:20:48.931Z,69.40
2022-09-17T20:22:21.332Z,70.79
2022-09-17T20:23:53.742Z,71.40
2022-09-17T20:25:26.304Z,71.25
2022-09-17T20:26:58.694Z,71.38
2022-09-17T20:28:30.821Z,71.43
2022-09-17T20:30:02.888Z,71.46
2022-09-17T20:31:35.309Z,71.79
2022-09-17T20:33:12.190Z,71.52
2022-09-17T20:34:44.488Z,71.69
2022-09-17T20:36:19.036Z,71.92
2022-09-17T20:39:43.671Z,72.47
2022-09-17T20:41:16.240Z,72.54
2022-09-17T20:42:48.323Z,72.42
2022-09-17T20:44:21.294Z,72.65
2022-09-17T20:45:58.121Z,72.27
2022-09-17T20:47:30.225Z,72.95
2022-09-17T20:49:02.216Z,73.39
2022-09-17T20:50:34.275Z,73.23
2022-09-17T21:38:23.534Z,77.08
2022-09-17T21:39:55.790Z,76.99
2022-09-17T21:41:28.262Z,77.09
2022-09-17T21:43:00.226Z,76.91
2022-09-17T21:44:32.340Z,76.98
2022-09-17T21:46:12.880Z,77.34
2022-09-17T21:47:45.027Z,77.59
2022-09-17T21:49:17.789Z,77.71
2022-09-17T21:50:49.846Z,77.51
2022-09-17T21:52:21.858Z,77.40
2022-09-17T21:53:55.589Z,77.52
2022-09-17T21:55:27.602Z,77.64
2022-09-17T21:57:00.476Z,78.21
2022-09-17T21:58:33.110Z,77.98
2022-09-17T22:00:06.122Z,78.23
2022-09-17T22:01:44.207Z,78.33
2022-09-17T22:03:20.229Z,78.79
2022-09-17T22:04:52.210Z,78.41
2022-09-17T22:06:27.541Z,78.94
2022-09-17T22:07:59.510Z,79.00
2022-09-17T22:09:31.652Z,78.75
2022-09-17T22:11:09.242Z,78.96
2022-09-17T22:12:44.187Z,79.29
2022-09-17T22:14:19.840Z,79.28
2022-09-17T22:15:59.913Z,79.19
2022-09-17T22:17:32.306Z,79.44
2022-09-17T22:19:05.307Z,79.38
2022-09-17T22:20:37.373Z,79.54
2022-09-17T22:22:09.659Z,79.29
2022-09-17T22:23:41.822Z,79.04
2022-09-17T22:25:13.909Z,78.94
2022-09-17T22:26:50.705Z,78.54
2022-09-17T22:28:25.002Z,79.05
2022-09-17T22:29:57.111Z,79.21
2022-09-17T22:31:29.742Z,79.33
2022-09-17T22:33:02.102Z,79.51
2022-09-17T22:34:34.226Z,79.52
2022-09-17T22:36:17.839Z,79.48